sensor_id;sensor_type;location;lat;lon;timestamp;temperature;humidity
26909;DHT22;14477;51.038;4.588;2023-07-31T00:00:49;18.80;99.90
26909;DHT22;14477;51.038;4.588;2023-07-31T00:03:15;18.70;99.90
26909;DHT22;14477;51.038;4.588;2023-07-31T00:05:41;18.70;99.90
26909;DHT22;14477;51.038;4.588;2023-07-31T00:08:07;18.70;99.90
26909;DHT22;14477;51.038;4.588;2023-07-31T00:10:32;18.70;99.90
26909;DHT22;14477;51.038;4.588;2023-07-31T00:12:59;18.70;99.90
26909;DHT22;14477;51.038;4.588;2023-07-31T00:15:25;18.80;99.90
26909;DHT22;14477;51.038;4.588;2023-07-31T00:17:50;18.80;99.90
26909;DHT22;14477;51.038;4.588;2023-07-31T00:20:16;18.70;99.90
26909;DHT22;14477;51.038;4.588;2023-07-31T00:22:42;18.80;99.90
26909;DHT22;14477;51.038;4.588;2023-07-31T00:25:09;18.70;99.90
26909;DHT22;14477;51.038;4.588;2023-07-31T00:27:34;18.80;99.90
26909;DHT22;14477;51.038;4.588;2023-07-31T00:30:00;18.80;99.90
26909;DHT22;14477;51.038;4.588;2023-07-31T00:32:26;18.80;99.90
26909;DHT22;14477;51.038;4.588;2023-07-31T00:34:51;18.80;99.90
26909;DHT22;14477;51.038;4.588;2023-07-31T00:37:17;18.70;99.90
26909;DHT22;14477;51.038;4.588;2023-07-31T00:39:43;18.80;99.90
26909;DHT22;14477;51.038;4.588;2023-07-31T00:42:09;18.80;99.90
26909;DHT22;14477;51.038;4.588;2023-07-31T00:44:34;18.80;99.90
26909;DHT22;14477;51.038;4.588;2023-07-31T00:47:00;18.80;99.90
26909;DHT22;14477;51.038;4.588;2023-07-31T00:49:27;18.80;99.90
26909;DHT22;14477;51.038;4.588;2023-07-31T00:51:53;18.80;99.90
26909;DHT22;14477;51.038;4.588;2023-07-31T00:54:19;18.80;99.90
26909;DHT22;14477;51.038;4.588;2023-07-31T00:56:46;18.80;99.90
26909;DHT22;14477;51.038;4.588;2023-07-31T00:59:14;18.80;99.90
26909;DHT22;14477;51.038;4.588;2023-07-31T01:01:40;18.80;99.90
26909;DHT22;14477;51.038;4.588;2023-07-31T01:04:06;18.90;99.90
26909;DHT22;14477;51.038;4.588;2023-07-31T01:09:11;18.90;99.90
26909;DHT22;14477;51.038;4.588;2023-07-31T01:11:48;18.90;99.90
26909;DHT22;14477;51.038;4.588;2023-07-31T01:14:16;18.90;99.90
26909;DHT22;14477;51.038;4.588;2023-07-31T01:16:42;18.90;99.90
26909;DHT22;14477;51.038;4.588;2023-07-31T01:19:09;18.90;99.90
26909;DHT22;14477;51.038;4.588;2023-07-31T01:27:03;19.00;99.90
26909;DHT22;14477;51.038;4.588;2023-07-31T01:29:52;19.00;99.90
26909;DHT22;14477;51.038;4.588;2023-07-31T01:32:22;19.00;99.90
26909;DHT22;14477;51.038;4.588;2023-07-31T01:34:48;19.00;99.90
26909;DHT22;14477;51.038;4.588;2023-07-31T01:37:14;19.00;99.90
26909;DHT22;14477;51.038;4.588;2023-07-31T01:39:40;19.00;99.90
26909;DHT22;14477;51.038;4.588;2023-07-31T01:42:06;19.00;99.90
26909;DHT22;14477;51.038;4.588;2023-07-31T01:44:33;19.00;99.90
26909;DHT22;14477;51.038;4.588;2023-07-31T01:46:58;19.00;99.90
26909;DHT22;14477;51.038;4.588;2023-07-31T01:49:25;19.00;99.90
26909;DHT22;14477;51.038;4.588;2023-07-31T01:54:17;19.00;99.90
26909;DHT22;14477;51.038;4.588;2023-07-31T01:56:43;19.00;99.90
26909;DHT22;14477;51.038;4.588;2023-07-31T01:59:09;19.10;99.90
26909;DHT22;14477;51.038;4.588;2023-07-31T02:01:34;19.10;99.90
26909;DHT22;14477;51.038;4.588;2023-07-31T02:04:00;19.10;99.90
26909;DHT22;14477;51.038;4.588;2023-07-31T02:06:26;19.20;99.90
26909;DHT22;14477;51.038;4.588;2023-07-31T02:08:52;19.10;99.90
26909;DHT22;14477;51.038;4.588;2023-07-31T02:11:18;19.20;99.90
26909;DHT22;14477;51.038;4.588;2023-07-31T02:13:44;19.20;99.90
26909;DHT22;14477;51.038;4.588;2023-07-31T02:16:10;19.20;99.90
26909;DHT22;14477;51.038;4.588;2023-07-31T02:18:35;19.20;99.90
26909;DHT22;14477;51.038;4.588;2023-07-31T02:21:01;19.20;99.90
26909;DHT22;14477;51.038;4.588;2023-07-31T02:23:27;19.30;99.90
26909;DHT22;14477;51.038;4.588;2023-07-31T02:25:53;19.30;99.90
26909;DHT22;14477;51.038;4.588;2023-07-31T02:28:18;19.30;99.90
26909;DHT22;14477;51.038;4.588;2023-07-31T02:30:45;19.30;99.90
26909;DHT22;14477;51.038;4.588;2023-07-31T02:33:11;19.30;99.90
26909;DHT22;14477;51.038;4.588;2023-07-31T02:35:37;19.30;99.90
26909;DHT22;14477;51.038;4.588;2023-07-31T02:38:03;19.30;99.90
26909;DHT22;14477;51.038;4.588;2023-07-31T02:40:28;19.30;99.90
26909;DHT22;14477;51.038;4.588;2023-07-31T02:42:54;19.30;99.90
26909;DHT22;14477;51.038;4.588;2023-07-31T02:45:21;19.30;99.90
26909;DHT22;14477;51.038;4.588;2023-07-31T02:47:47;19.30;99.90
26909;DHT22;14477;51.038;4.588;2023-07-31T02:50:12;19.30;99.90
26909;DHT22;14477;51.038;4.588;2023-07-31T02:52:38;19.30;99.90
26909;DHT22;14477;51.038;4.588;2023-07-31T02:55:04;19.40;99.90
26909;DHT22;14477;51.038;4.588;2023-07-31T02:57:30;19.40;99.90
26909;DHT22;14477;51.038;4.588;2023-07-31T02:59:55;19.30;99.90
26909;DHT22;14477;51.038;4.588;2023-07-31T03:02:21;19.40;99.90
26909;DHT22;14477;51.038;4.588;2023-07-31T03:04:47;19.30;99.90
26909;DHT22;14477;51.038;4.588;2023-07-31T03:07:12;19.40;99.90
26909;DHT22;14477;51.038;4.588;2023-07-31T03:09:38;19.40;99.90
26909;DHT22;14477;51.038;4.588;2023-07-31T03:12:04;19.40;99.90
26909;DHT22;14477;51.038;4.588;2023-07-31T03:14:30;19.40;99.90
26909;DHT22;14477;51.038;4.588;2023-07-31T03:16:56;19.40;99.90
26909;DHT22;14477;51.038;4.588;2023-07-31T03:19:22;19.40;99.90
26909;DHT22;14477;51.038;4.588;2023-07-31T03:21:47;19.40;99.90
26909;DHT22;14477;51.038;4.588;2023-07-31T03:24:13;19.40;99.90
26909;DHT22;14477;51.038;4.588;2023-07-31T03:26:39;19.40;99.90
26909;DHT22;14477;51.038;4.588;2023-07-31T03:29:07;19.40;99.90
26909;DHT22;14477;51.038;4.588;2023-07-31T03:31:33;19.40;99.90
26909;DHT22;14477;51.038;4.588;2023-07-31T03:33:58;19.40;99.90
26909;DHT22;14477;51.038;4.588;2023-07-31T03:36:24;19.40;99.90
26909;DHT22;14477;51.038;4.588;2023-07-31T03:38:51;19.40;99.90
26909;DHT22;14477;51.038;4.588;2023-07-31T03:41:17;19.40;99.90
26909;DHT22;14477;51.038;4.588;2023-07-31T03:43:43;19.40;99.90
26909;DHT22;14477;51.038;4.588;2023-07-31T03:46:08;19.40;99.90
26909;DHT22;14477;51.038;4.588;2023-07-31T03:48:34;19.40;99.90
26909;DHT22;14477;51.038;4.588;2023-07-31T03:51:00;19.40;99.90
26909;DHT22;14477;51.038;4.588;2023-07-31T03:53:25;19.30;99.90
26909;DHT22;14477;51.038;4.588;2023-07-31T03:55:51;19.30;99.90
26909;DHT22;14477;51.038;4.588;2023-07-31T03:58:17;19.30;99.90
26909;DHT22;14477;51.038;4.588;2023-07-31T04:00:43;19.30;99.90
26909;DHT22;14477;51.038;4.588;2023-07-31T04:03:08;19.20;99.90
26909;DHT22;14477;51.038;4.588;2023-07-31T04:05:38;19.20;99.90
26909;DHT22;14477;51.038;4.588;2023-07-31T04:08:04;19.20;99.90
26909;DHT22;14477;51.038;4.588;2023-07-31T04:10:30;19.20;99.90
26909;DHT22;14477;51.038;4.588;2023-07-31T04:12:58;19.10;99.90
26909;DHT22;14477;51.038;4.588;2023-07-31T04:15:24;19.10;99.90
26909;DHT22;14477;51.038;4.588;2023-07-31T04:17:50;19.10;99.90
26909;DHT22;14477;51.038;4.588;2023-07-31T04:20:16;19.10;99.90
26909;DHT22;14477;51.038;4.588;2023-07-31T04:22:41;19.10;99.90
26909;DHT22;14477;51.038;4.588;2023-07-31T04:25:07;19.10;99.90
26909;DHT22;14477;51.038;4.588;2023-07-31T04:27:33;19.00;99.90
26909;DHT22;14477;51.038;4.588;2023-07-31T04:29:59;19.00;99.90
26909;DHT22;14477;51.038;4.588;2023-07-31T04:32:25;19.00;99.90
26909;DHT22;14477;51.038;4.588;2023-07-31T04:34:50;18.90;99.90
26909;DHT22;14477;51.038;4.588;2023-07-31T04:37:16;16.20;99.90
26909;DHT22;14477;51.038;4.588;2023-07-31T04:39:42;18.90;99.90
26909;DHT22;14477;51.038;4.588;2023-07-31T04:42:07;18.90;99.90
26909;DHT22;14477;51.038;4.588;2023-07-31T04:44:34;18.90;99.90
26909;DHT22;14477;51.038;4.588;2023-07-31T04:47:00;18.90;99.90
26909;DHT22;14477;51.038;4.588;2023-07-31T04:49:27;18.80;99.90
26909;DHT22;14477;51.038;4.588;2023-07-31T04:51:53;18.80;99.90
26909;DHT22;14477;51.038;4.588;2023-07-31T04:54:18;18.80;99.90
26909;DHT22;14477;51.038;4.588;2023-07-31T04:56:44;18.90;99.90
26909;DHT22;14477;51.038;4.588;2023-07-31T04:59:10;18.80;99.90
26909;DHT22;14477;51.038;4.588;2023-07-31T05:01:36;18.80;99.90
26909;DHT22;14477;51.038;4.588;2023-07-31T05:04:01;18.80;99.90
26909;DHT22;14477;51.038;4.588;2023-07-31T05:06:27;18.80;99.90
26909;DHT22;14477;51.038;4.588;2023-07-31T05:08:53;18.80;99.90
26909;DHT22;14477;51.038;4.588;2023-07-31T05:11:19;18.80;99.90
26909;DHT22;14477;51.038;4.588;2023-07-31T05:13:44;18.70;99.90
26909;DHT22;14477;51.038;4.588;2023-07-31T05:16:10;18.70;99.90
26909;DHT22;14477;51.038;4.588;2023-07-31T05:18:36;18.70;99.90
26909;DHT22;14477;51.038;4.588;2023-07-31T05:21:02;18.70;99.90
26909;DHT22;14477;51.038;4.588;2023-07-31T05:23:27;18.70;99.90
26909;DHT22;14477;51.038;4.588;2023-07-31T05:25:53;18.70;99.90
26909;DHT22;14477;51.038;4.588;2023-07-31T05:28:21;18.70;99.90
26909;DHT22;14477;51.038;4.588;2023-07-31T05:30:47;18.70;99.90
26909;DHT22;14477;51.038;4.588;2023-07-31T05:33:13;18.70;99.90
26909;DHT22;14477;51.038;4.588;2023-07-31T05:35:38;18.70;99.90
26909;DHT22;14477;51.038;4.588;2023-07-31T05:38:04;18.70;99.90
26909;DHT22;14477;51.038;4.588;2023-07-31T05:40:33;18.70;99.90
26909;DHT22;14477;51.038;4.588;2023-07-31T05:42:58;18.70;99.90
26909;DHT22;14477;51.038;4.588;2023-07-31T05:45:25;18.70;99.90
26909;DHT22;14477;51.038;4.588;2023-07-31T05:47:51;18.70;99.90
26909;DHT22;14477;51.038;4.588;2023-07-31T05:50:16;18.70;99.90
26909;DHT22;14477;51.038;4.588;2023-07-31T05:52:42;18.60;99.90
26909;DHT22;14477;51.038;4.588;2023-07-31T05:55:08;18.60;99.90
26909;DHT22;14477;51.038;4.588;2023-07-31T05:57:34;18.70;99.90
26909;DHT22;14477;51.038;4.588;2023-07-31T05:59:59;18.60;99.90
26909;DHT22;14477;51.038;4.588;2023-07-31T06:02:25;18.60;99.90
26909;DHT22;14477;51.038;4.588;2023-07-31T06:04:51;18.40;99.90
26909;DHT22;14477;51.038;4.588;2023-07-31T06:07:16;18.60;99.90
26909;DHT22;14477;51.038;4.588;2023-07-31T06:09:42;18.60;99.90
26909;DHT22;14477;51.038;4.588;2023-07-31T06:12:08;18.60;99.90
26909;DHT22;14477;51.038;4.588;2023-07-31T06:14:34;18.60;99.90
26909;DHT22;14477;51.038;4.588;2023-07-31T06:17:00;18.60;99.90
26909;DHT22;14477;51.038;4.588;2023-07-31T06:19:25;18.70;99.90
26909;DHT22;14477;51.038;4.588;2023-07-31T06:21:51;18.70;99.90
26909;DHT22;14477;51.038;4.588;2023-07-31T06:24:17;18.70;99.90
26909;DHT22;14477;51.038;4.588;2023-07-31T06:26:45;18.70;99.90
26909;DHT22;14477;51.038;4.588;2023-07-31T06:29:11;18.70;99.90
26909;DHT22;14477;51.038;4.588;2023-07-31T06:31:40;18.70;99.90
26909;DHT22;14477;51.038;4.588;2023-07-31T06:34:08;15.90;99.90
26909;DHT22;14477;51.038;4.588;2023-07-31T06:36:33;18.70;99.90
26909;DHT22;14477;51.038;4.588;2023-07-31T06:38:59;18.70;99.90
26909;DHT22;14477;51.038;4.588;2023-07-31T06:41:25;18.70;99.90
26909;DHT22;14477;51.038;4.588;2023-07-31T06:43:50;18.80;99.90
26909;DHT22;14477;51.038;4.588;2023-07-31T06:46:16;18.80;99.90
26909;DHT22;14477;51.038;4.588;2023-07-31T06:48:42;18.80;99.90
26909;DHT22;14477;51.038;4.588;2023-07-31T06:51:07;18.80;99.90
26909;DHT22;14477;51.038;4.588;2023-07-31T06:53:33;18.80;99.90
26909;DHT22;14477;51.038;4.588;2023-07-31T06:55:59;18.90;99.90
26909;DHT22;14477;51.038;4.588;2023-07-31T06:58:24;18.90;99.90
26909;DHT22;14477;51.038;4.588;2023-07-31T07:00:50;19.10;99.90
26909;DHT22;14477;51.038;4.588;2023-07-31T07:03:18;19.00;99.90
26909;DHT22;14477;51.038;4.588;2023-07-31T07:05:43;19.00;99.90
26909;DHT22;14477;51.038;4.588;2023-07-31T07:08:09;19.10;99.90
26909;DHT22;14477;51.038;4.588;2023-07-31T07:10:35;19.10;99.90
26909;DHT22;14477;51.038;4.588;2023-07-31T07:13:01;19.20;99.90
26909;DHT22;14477;51.038;4.588;2023-07-31T07:15:26;19.20;99.90
26909;DHT22;14477;51.038;4.588;2023-07-31T07:17:52;19.30;99.90
26909;DHT22;14477;51.038;4.588;2023-07-31T07:20:18;19.30;99.90
26909;DHT22;14477;51.038;4.588;2023-07-31T07:22:45;19.30;99.90
26909;DHT22;14477;51.038;4.588;2023-07-31T07:25:11;19.40;99.90
26909;DHT22;14477;51.038;4.588;2023-07-31T07:27:37;19.40;99.90
26909;DHT22;14477;51.038;4.588;2023-07-31T07:30:03;20.10;99.90
26909;DHT22;14477;51.038;4.588;2023-07-31T07:32:29;19.50;99.90
26909;DHT22;14477;51.038;4.588;2023-07-31T07:34:55;19.50;99.90
26909;DHT22;14477;51.038;4.588;2023-07-31T07:37:21;19.50;99.90
26909;DHT22;14477;51.038;4.588;2023-07-31T07:39:47;19.50;99.90
26909;DHT22;14477;51.038;4.588;2023-07-31T07:42:13;19.60;99.90
26909;DHT22;14477;51.038;4.588;2023-07-31T07:44:39;19.60;99.90
26909;DHT22;14477;51.038;4.588;2023-07-31T07:47:05;19.50;99.90
26909;DHT22;14477;51.038;4.588;2023-07-31T07:49:35;19.60;99.90
26909;DHT22;14477;51.038;4.588;2023-07-31T07:52:01;19.60;99.90
26909;DHT22;14477;51.038;4.588;2023-07-31T07:54:27;19.60;99.90
26909;DHT22;14477;51.038;4.588;2023-07-31T07:56:53;19.60;99.90
26909;DHT22;14477;51.038;4.588;2023-07-31T07:59:19;19.60;99.90
26909;DHT22;14477;51.038;4.588;2023-07-31T08:01:45;19.60;99.90
26909;DHT22;14477;51.038;4.588;2023-07-31T08:04:10;19.60;99.90
26909;DHT22;14477;51.038;4.588;2023-07-31T08:06:36;19.60;99.90
26909;DHT22;14477;51.038;4.588;2023-07-31T08:09:02;19.60;99.90
26909;DHT22;14477;51.038;4.588;2023-07-31T08:11:32;19.60;99.90
26909;DHT22;14477;51.038;4.588;2023-07-31T08:13:58;19.60;99.90
26909;DHT22;14477;51.038;4.588;2023-07-31T08:16:24;19.70;99.90
26909;DHT22;14477;51.038;4.588;2023-07-31T08:18:49;19.70;99.90
26909;DHT22;14477;51.038;4.588;2023-07-31T08:21:15;19.80;99.90
26909;DHT22;14477;51.038;4.588;2023-07-31T08:23:41;19.90;99.90
26909;DHT22;14477;51.038;4.588;2023-07-31T08:26:06;19.90;99.90
26909;DHT22;14477;51.038;4.588;2023-07-31T08:28:32;20.10;99.90
26909;DHT22;14477;51.038;4.588;2023-07-31T08:30:58;20.20;99.90
26909;DHT22;14477;51.038;4.588;2023-07-31T08:33:24;20.20;99.90
26909;DHT22;14477;51.038;4.588;2023-07-31T08:35:49;20.20;99.90
26909;DHT22;14477;51.038;4.588;2023-07-31T08:38:15;20.40;99.90
26909;DHT22;14477;51.038;4.588;2023-07-31T08:40:41;20.40;99.90
26909;DHT22;14477;51.038;4.588;2023-07-31T08:43:08;20.50;99.90
26909;DHT22;14477;51.038;4.588;2023-07-31T08:45:34;20.50;99.90
26909;DHT22;14477;51.038;4.588;2023-07-31T08:48:00;20.50;99.90
26909;DHT22;14477;51.038;4.588;2023-07-31T08:50:26;20.50;99.90
26909;DHT22;14477;51.038;4.588;2023-07-31T08:52:53;20.50;99.90
26909;DHT22;14477;51.038;4.588;2023-07-31T08:55:19;20.50;99.90
26909;DHT22;14477;51.038;4.588;2023-07-31T08:57:52;20.50;99.90
26909;DHT22;14477;51.038;4.588;2023-07-31T09:00:19;20.50;99.90
26909;DHT22;14477;51.038;4.588;2023-07-31T09:03:02;20.50;99.90
26909;DHT22;14477;51.038;4.588;2023-07-31T09:05:30;20.60;99.90
26909;DHT22;14477;51.038;4.588;2023-07-31T09:07:57;20.60;99.90
26909;DHT22;14477;51.038;4.588;2023-07-31T09:10:23;20.60;99.90
26909;DHT22;14477;51.038;4.588;2023-07-31T09:12:51;20.60;99.90
26909;DHT22;14477;51.038;4.588;2023-07-31T09:15:17;20.70;99.90
26909;DHT22;14477;51.038;4.588;2023-07-31T09:17:44;20.70;99.90
26909;DHT22;14477;51.038;4.588;2023-07-31T09:20:16;19.80;99.90
26909;DHT22;14477;51.038;4.588;2023-07-31T09:22:42;20.70;99.90
26909;DHT22;14477;51.038;4.588;2023-07-31T09:30:18;19.40;99.90
26909;DHT22;14477;51.038;4.588;2023-07-31T09:32:44;20.80;99.90
26909;DHT22;14477;51.038;4.588;2023-07-31T09:35:43;20.90;99.90
26909;DHT22;14477;51.038;4.588;2023-07-31T09:38:13;21.00;99.90
26909;DHT22;14477;51.038;4.588;2023-07-31T09:40:41;21.00;99.90
26909;DHT22;14477;51.038;4.588;2023-07-31T09:43:09;21.10;99.90
26909;DHT22;14477;51.038;4.588;2023-07-31T09:45:40;21.20;99.90
26909;DHT22;14477;51.038;4.588;2023-07-31T09:48:11;21.20;99.90
26909;DHT22;14477;51.038;4.588;2023-07-31T09:50:38;21.30;99.90
26909;DHT22;14477;51.038;4.588;2023-07-31T09:53:05;21.30;99.90
26909;DHT22;14477;51.038;4.588;2023-07-31T09:55:31;21.40;99.90
26909;DHT22;14477;51.038;4.588;2023-07-31T09:57:57;21.40;99.90
26909;DHT22;14477;51.038;4.588;2023-07-31T10:00:23;21.40;99.90
26909;DHT22;14477;51.038;4.588;2023-07-31T10:02:53;21.40;99.90
26909;DHT22;14477;51.038;4.588;2023-07-31T10:05:19;21.40;99.90
26909;DHT22;14477;51.038;4.588;2023-07-31T10:07:55;21.40;99.90
26909;DHT22;14477;51.038;4.588;2023-07-31T10:10:23;21.40;99.90
26909;DHT22;14477;51.038;4.588;2023-07-31T10:12:52;21.40;99.90
26909;DHT22;14477;51.038;4.588;2023-07-31T10:15:19;21.30;99.90
26909;DHT22;14477;51.038;4.588;2023-07-31T10:17:47;21.40;99.90
26909;DHT22;14477;51.038;4.588;2023-07-31T10:20:14;21.40;99.90
26909;DHT22;14477;51.038;4.588;2023-07-31T10:22:42;21.30;99.90
26909;DHT22;14477;51.038;4.588;2023-07-31T10:25:09;21.30;99.90
26909;DHT22;14477;51.038;4.588;2023-07-31T10:27:42;21.30;99.90
26909;DHT22;14477;51.038;4.588;2023-07-31T10:30:14;21.30;99.90
26909;DHT22;14477;51.038;4.588;2023-07-31T10:32:41;21.30;99.90
26909;DHT22;14477;51.038;4.588;2023-07-31T10:35:08;21.30;99.90
26909;DHT22;14477;51.038;4.588;2023-07-31T10:37:40;21.70;99.90
26909;DHT22;14477;51.038;4.588;2023-07-31T10:42:46;21.30;99.90
26909;DHT22;14477;51.038;4.588;2023-07-31T10:45:13;21.40;99.90
26909;DHT22;14477;51.038;4.588;2023-07-31T10:47:45;21.40;99.90
26909;DHT22;14477;51.038;4.588;2023-07-31T10:50:20;21.40;99.90
26909;DHT22;14477;51.038;4.588;2023-07-31T10:52:56;21.40;99.90
26909;DHT22;14477;51.038;4.588;2023-07-31T10:55:42;21.40;99.90
26909;DHT22;14477;51.038;4.588;2023-07-31T10:58:11;21.40;99.90
26909;DHT22;14477;51.038;4.588;2023-07-31T11:00:44;21.50;99.90
26909;DHT22;14477;51.038;4.588;2023-07-31T11:03:15;21.50;99.90
26909;DHT22;14477;51.038;4.588;2023-07-31T11:06:02;21.50;99.90
26909;DHT22;14477;51.038;4.588;2023-07-31T11:08:33;21.00;99.90
26909;DHT22;14477;51.038;4.588;2023-07-31T11:16:09;21.60;99.90
26909;DHT22;14477;51.038;4.588;2023-07-31T11:18:35;21.60;99.90
26909;DHT22;14477;51.038;4.588;2023-07-31T11:21:02;21.60;99.90
26909;DHT22;14477;51.038;4.588;2023-07-31T11:23:27;21.60;99.90
26909;DHT22;14477;51.038;4.588;2023-07-31T11:25:59;21.60;99.90
26909;DHT22;14477;51.038;4.588;2023-07-31T11:28:25;21.60;99.90
26909;DHT22;14477;51.038;4.588;2023-07-31T11:30:51;21.70;99.90
26909;DHT22;14477;51.038;4.588;2023-07-31T11:33:17;21.70;99.90
26909;DHT22;14477;51.038;4.588;2023-07-31T11:35:46;21.80;99.90
26909;DHT22;14477;51.038;4.588;2023-07-31T11:38:28;21.80;99.90
26909;DHT22;14477;51.038;4.588;2023-07-31T11:40:56;21.90;99.90
26909;DHT22;14477;51.038;4.588;2023-07-31T11:43:22;21.90;99.90
26909;DHT22;14477;51.038;4.588;2023-07-31T11:45:55;22.00;99.90
26909;DHT22;14477;51.038;4.588;2023-07-31T11:48:23;22.00;99.90
26909;DHT22;14477;51.038;4.588;2023-07-31T11:51:02;22.00;99.90
26909;DHT22;14477;51.038;4.588;2023-07-31T11:53:31;22.00;99.90
26909;DHT22;14477;51.038;4.588;2023-07-31T11:55:59;22.10;99.90
26909;DHT22;14477;51.038;4.588;2023-07-31T11:58:26;22.10;99.90
26909;DHT22;14477;51.038;4.588;2023-07-31T12:00:52;22.10;99.90
26909;DHT22;14477;51.038;4.588;2023-07-31T12:03:18;22.20;99.90
26909;DHT22;14477;51.038;4.588;2023-07-31T12:05:44;22.20;99.90
26909;DHT22;14477;51.038;4.588;2023-07-31T12:08:12;22.80;99.90
26909;DHT22;14477;51.038;4.588;2023-07-31T12:10:38;22.10;99.90
26909;DHT22;14477;51.038;4.588;2023-07-31T12:13:10;22.20;99.90
26909;DHT22;14477;51.038;4.588;2023-07-31T12:15:43;22.20;99.90
26909;DHT22;14477;51.038;4.588;2023-07-31T12:18:11;22.30;99.90
26909;DHT22;14477;51.038;4.588;2023-07-31T12:20:47;22.30;99.90
26909;DHT22;14477;51.038;4.588;2023-07-31T12:23:25;22.40;99.90
26909;DHT22;14477;51.038;4.588;2023-07-31T12:28:28;22.50;99.90
26909;DHT22;14477;51.038;4.588;2023-07-31T12:30:57;22.60;99.90
26909;DHT22;14477;51.038;4.588;2023-07-31T12:33:37;22.70;99.90
26909;DHT22;14477;51.038;4.588;2023-07-31T12:36:07;22.70;99.90
26909;DHT22;14477;51.038;4.588;2023-07-31T12:38:33;22.70;99.90
26909;DHT22;14477;51.038;4.588;2023-07-31T12:40:59;22.70;99.90
26909;DHT22;14477;51.038;4.588;2023-07-31T12:43:24;22.80;99.90
26909;DHT22;14477;51.038;4.588;2023-07-31T12:45:50;22.80;99.90
26909;DHT22;14477;51.038;4.588;2023-07-31T12:48:17;22.80;99.90
26909;DHT22;14477;51.038;4.588;2023-07-31T12:50:43;22.80;99.90
26909;DHT22;14477;51.038;4.588;2023-07-31T12:53:08;22.80;99.90
26909;DHT22;14477;51.038;4.588;2023-07-31T12:55:34;22.90;99.90
26909;DHT22;14477;51.038;4.588;2023-07-31T12:58:22;22.90;99.90
26909;DHT22;14477;51.038;4.588;2023-07-31T13:00:48;22.90;99.90
26909;DHT22;14477;51.038;4.588;2023-07-31T13:03:14;22.90;99.90
26909;DHT22;14477;51.038;4.588;2023-07-31T13:05:40;22.80;99.90
26909;DHT22;14477;51.038;4.588;2023-07-31T13:08:06;22.80;99.90
26909;DHT22;14477;51.038;4.588;2023-07-31T13:10:32;23.50;99.90
26909;DHT22;14477;51.038;4.588;2023-07-31T13:12:58;22.80;99.90
26909;DHT22;14477;51.038;4.588;2023-07-31T13:15:24;22.80;99.90
26909;DHT22;14477;51.038;4.588;2023-07-31T13:17:50;22.80;99.90
26909;DHT22;14477;51.038;4.588;2023-07-31T13:20:16;22.80;99.90
26909;DHT22;14477;51.038;4.588;2023-07-31T13:22:41;22.70;99.90
26909;DHT22;14477;51.038;4.588;2023-07-31T13:25:08;22.20;99.90
26909;DHT22;14477;51.038;4.588;2023-07-31T13:27:35;22.60;99.90
26909;DHT22;14477;51.038;4.588;2023-07-31T13:30:01;22.60;99.90
26909;DHT22;14477;51.038;4.588;2023-07-31T13:32:27;22.60;99.90
26909;DHT22;14477;51.038;4.588;2023-07-31T13:34:53;22.60;99.90
26909;DHT22;14477;51.038;4.588;2023-07-31T13:37:19;22.50;99.90
26909;DHT22;14477;51.038;4.588;2023-07-31T13:39:45;22.50;99.90
26909;DHT22;14477;51.038;4.588;2023-07-31T13:42:10;22.50;99.90
26909;DHT22;14477;51.038;4.588;2023-07-31T13:44:38;22.40;99.90
26909;DHT22;14477;51.038;4.588;2023-07-31T13:47:05;22.30;99.90
26909;DHT22;14477;51.038;4.588;2023-07-31T13:49:33;22.20;99.90
26909;DHT22;14477;51.038;4.588;2023-07-31T13:51:59;22.00;99.90
26909;DHT22;14477;51.038;4.588;2023-07-31T13:54:25;21.90;99.90
26909;DHT22;14477;51.038;4.588;2023-07-31T13:56:53;21.80;99.90
26909;DHT22;14477;51.038;4.588;2023-07-31T13:59:20;21.70;99.90
26909;DHT22;14477;51.038;4.588;2023-07-31T14:01:46;21.60;99.90
26909;DHT22;14477;51.038;4.588;2023-07-31T14:04:12;21.50;99.90
26909;DHT22;14477;51.038;4.588;2023-07-31T14:06:38;21.40;99.90
26909;DHT22;14477;51.038;4.588;2023-07-31T14:09:04;21.40;99.90
26909;DHT22;14477;51.038;4.588;2023-07-31T14:11:33;21.30;99.90
26909;DHT22;14477;51.038;4.588;2023-07-31T14:13:59;21.20;99.90
26909;DHT22;14477;51.038;4.588;2023-07-31T14:16:27;21.20;99.90
26909;DHT22;14477;51.038;4.588;2023-07-31T14:18:53;21.10;99.90
26909;DHT22;14477;51.038;4.588;2023-07-31T14:21:19;21.10;99.90
26909;DHT22;14477;51.038;4.588;2023-07-31T14:23:45;21.00;99.90
26909;DHT22;14477;51.038;4.588;2023-07-31T14:26:11;20.90;99.90
26909;DHT22;14477;51.038;4.588;2023-07-31T14:28:37;20.90;99.90
26909;DHT22;14477;51.038;4.588;2023-07-31T14:31:03;20.80;99.90
26909;DHT22;14477;51.038;4.588;2023-07-31T14:33:29;20.80;99.90
26909;DHT22;14477;51.038;4.588;2023-07-31T14:35:55;20.70;99.90
26909;DHT22;14477;51.038;4.588;2023-07-31T14:38:21;20.70;99.90
26909;DHT22;14477;51.038;4.588;2023-07-31T14:40:47;20.60;99.90
26909;DHT22;14477;51.038;4.588;2023-07-31T14:43:12;20.50;99.90
26909;DHT22;14477;51.038;4.588;2023-07-31T14:45:38;20.50;99.90
26909;DHT22;14477;51.038;4.588;2023-07-31T14:48:04;20.50;99.90
26909;DHT22;14477;51.038;4.588;2023-07-31T14:50:30;20.40;99.90
26909;DHT22;14477;51.038;4.588;2023-07-31T14:52:56;20.40;99.90
26909;DHT22;14477;51.038;4.588;2023-07-31T14:55:22;20.40;99.90
26909;DHT22;14477;51.038;4.588;2023-07-31T14:57:48;20.30;99.90
26909;DHT22;14477;51.038;4.588;2023-07-31T15:00:15;20.30;99.90
26909;DHT22;14477;51.038;4.588;2023-07-31T15:02:41;20.30;99.90
26909;DHT22;14477;51.038;4.588;2023-07-31T15:05:07;20.30;99.90
26909;DHT22;14477;51.038;4.588;2023-07-31T15:07:34;20.30;99.90
26909;DHT22;14477;51.038;4.588;2023-07-31T15:10:01;20.30;99.90
26909;DHT22;14477;51.038;4.588;2023-07-31T15:12:28;20.30;99.90
26909;DHT22;14477;51.038;4.588;2023-07-31T15:14:54;20.20;99.90
26909;DHT22;14477;51.038;4.588;2023-07-31T15:17:20;20.30;99.90
26909;DHT22;14477;51.038;4.588;2023-07-31T15:19:46;20.20;99.90
26909;DHT22;14477;51.038;4.588;2023-07-31T15:22:12;20.20;99.90
26909;DHT22;14477;51.038;4.588;2023-07-31T15:24:37;20.20;99.90
26909;DHT22;14477;51.038;4.588;2023-07-31T15:27:04;20.20;99.90
26909;DHT22;14477;51.038;4.588;2023-07-31T15:29:30;20.20;99.90
26909;DHT22;14477;51.038;4.588;2023-07-31T15:31:56;20.20;99.90
26909;DHT22;14477;51.038;4.588;2023-07-31T15:34:22;20.10;99.90
26909;DHT22;14477;51.038;4.588;2023-07-31T15:36:48;20.10;99.90
26909;DHT22;14477;51.038;4.588;2023-07-31T15:39:14;20.10;99.90
26909;DHT22;14477;51.038;4.588;2023-07-31T15:41:40;20.10;99.90
26909;DHT22;14477;51.038;4.588;2023-07-31T15:44:07;20.00;99.90
26909;DHT22;14477;51.038;4.588;2023-07-31T15:46:33;20.00;99.90
26909;DHT22;14477;51.038;4.588;2023-07-31T15:48:59;20.10;99.90
26909;DHT22;14477;51.038;4.588;2023-07-31T15:51:25;20.10;99.90
26909;DHT22;14477;51.038;4.588;2023-07-31T15:53:52;20.00;99.90